sensor_id;sensor_type;location;lat;lon;timestamp;temperature;humidity
23671;DHT22;12012;51.998;7.614;2023-02-04T00:01:43;6.00;74.00
23671;DHT22;12012;51.998;7.614;2023-02-04T00:04:11;6.00;74.60
23671;DHT22;12012;51.998;7.614;2023-02-04T00:06:36;5.90;77.10
23671;DHT22;12012;51.998;7.614;2023-02-04T00:09:02;5.90;77.70
23671;DHT22;12012;51.998;7.614;2023-02-04T00:11:27;5.90;78.00
23671;DHT22;12012;51.998;7.614;2023-02-04T00:13:53;5.90;78.20
23671;DHT22;12012;51.998;7.614;2023-02-04T00:16:18;5.90;79.60
23671;DHT22;12012;51.998;7.614;2023-02-04T00:18:44;5.80;80.80
23671;DHT22;12012;51.998;7.614;2023-02-04T00:21:09;5.80;81.50
23671;DHT22;12012;51.998;7.614;2023-02-04T00:23:35;5.80;82.50
23671;DHT22;12012;51.998;7.614;2023-02-04T00:26:01;5.80;83.80
23671;DHT22;12012;51.998;7.614;2023-02-04T00:28:26;5.80;84.20
23671;DHT22;12012;51.998;7.614;2023-02-04T00:30:52;5.80;85.40
23671;DHT22;12012;51.998;7.614;2023-02-04T00:33:17;5.80;84.80
23671;DHT22;12012;51.998;7.614;2023-02-04T00:35:43;5.90;86.00
23671;DHT22;12012;51.998;7.614;2023-02-04T00:38:08;5.80;86.10
23671;DHT22;12012;51.998;7.614;2023-02-04T00:40:34;5.80;85.00
23671;DHT22;12012;51.998;7.614;2023-02-04T00:42:59;5.80;85.50
23671;DHT22;12012;51.998;7.614;2023-02-04T00:45:25;5.80;85.60
23671;DHT22;12012;51.998;7.614;2023-02-04T00:47:51;5.80;86.80
23671;DHT22;12012;51.998;7.614;2023-02-04T00:50:16;5.80;86.70
23671;DHT22;12012;51.998;7.614;2023-02-04T00:52:42;5.80;85.60
23671;DHT22;12012;51.998;7.614;2023-02-04T00:55:08;5.70;86.50
23671;DHT22;12012;51.998;7.614;2023-02-04T00:57:34;5.70;87.10
23671;DHT22;12012;51.998;7.614;2023-02-04T01:00:00;5.80;87.00
23671;DHT22;12012;51.998;7.614;2023-02-04T01:02:26;5.70;89.30
23671;DHT22;12012;51.998;7.614;2023-02-04T01:04:51;5.70;88.60
23671;DHT22;12012;51.998;7.614;2023-02-04T01:07:17;5.70;90.50
23671;DHT22;12012;51.998;7.614;2023-02-04T01:09:43;5.70;90.50
23671;DHT22;12012;51.998;7.614;2023-02-04T01:12:08;5.70;90.10
23671;DHT22;12012;51.998;7.614;2023-02-04T01:14:34;5.70;90.90
23671;DHT22;12012;51.998;7.614;2023-02-04T01:16:59;5.70;90.60
23671;DHT22;12012;51.998;7.614;2023-02-04T01:19:25;5.70;91.10
23671;DHT22;12012;51.998;7.614;2023-02-04T01:21:50;5.60;91.40
23671;DHT22;12012;51.998;7.614;2023-02-04T01:24:16;5.60;91.30
23671;DHT22;12012;51.998;7.614;2023-02-04T01:26:42;5.60;92.10
23671;DHT22;12012;51.998;7.614;2023-02-04T01:29:07;5.60;92.20
23671;DHT22;12012;51.998;7.614;2023-02-04T01:31:33;5.60;92.80
23671;DHT22;12012;51.998;7.614;2023-02-04T01:33:59;5.60;93.40
23671;DHT22;12012;51.998;7.614;2023-02-04T01:36:25;5.70;93.50
23671;DHT22;12012;51.998;7.614;2023-02-04T01:38:51;5.70;94.20
23671;DHT22;12012;51.998;7.614;2023-02-04T01:41:17;5.70;94.00
23671;DHT22;12012;51.998;7.614;2023-02-04T01:43:44;5.80;94.20
23671;DHT22;12012;51.998;7.614;2023-02-04T01:46:10;5.80;94.40
23671;DHT22;12012;51.998;7.614;2023-02-04T01:48:35;5.80;94.20
23671;DHT22;12012;51.998;7.614;2023-02-04T01:51:10;5.80;94.40
23671;DHT22;12012;51.998;7.614;2023-02-04T01:53:36;5.90;94.30
23671;DHT22;12012;51.998;7.614;2023-02-04T01:56:21;5.90;94.60
23671;DHT22;12012;51.998;7.614;2023-02-04T01:58:47;5.90;94.90
23671;DHT22;12012;51.998;7.614;2023-02-04T02:01:14;5.90;94.80
23671;DHT22;12012;51.998;7.614;2023-02-04T02:03:41;5.90;94.90
23671;DHT22;12012;51.998;7.614;2023-02-04T02:06:08;6.00;95.10
23671;DHT22;12012;51.998;7.614;2023-02-04T02:08:38;6.00;94.60
23671;DHT22;12012;51.998;7.614;2023-02-04T02:11:03;6.00;94.40
23671;DHT22;12012;51.998;7.614;2023-02-04T02:13:29;6.00;94.50
23671;DHT22;12012;51.998;7.614;2023-02-04T02:15:55;6.00;95.30
23671;DHT22;12012;51.998;7.614;2023-02-04T02:18:21;6.00;94.80
23671;DHT22;12012;51.998;7.614;2023-02-04T02:20:46;6.10;94.70
23671;DHT22;12012;51.998;7.614;2023-02-04T02:23:25;6.10;94.70
23671;DHT22;12012;51.998;7.614;2023-02-04T02:25:53;6.10;95.20
23671;DHT22;12012;51.998;7.614;2023-02-04T02:28:20;6.10;95.20
23671;DHT22;12012;51.998;7.614;2023-02-04T02:30:48;6.10;95.10
23671;DHT22;12012;51.998;7.614;2023-02-04T02:33:16;6.20;94.80
23671;DHT22;12012;51.998;7.614;2023-02-04T02:35:43;6.20;95.00
23671;DHT22;12012;51.998;7.614;2023-02-04T02:38:13;6.20;95.10
23671;DHT22;12012;51.998;7.614;2023-02-04T02:40:39;6.20;94.90
23671;DHT22;12012;51.998;7.614;2023-02-04T02:43:05;6.20;95.20
23671;DHT22;12012;51.998;7.614;2023-02-04T02:45:33;6.20;95.10
23671;DHT22;12012;51.998;7.614;2023-02-04T02:48:00;6.20;95.00
23671;DHT22;12012;51.998;7.614;2023-02-04T02:50:31;6.20;94.90
23671;DHT22;12012;51.998;7.614;2023-02-04T02:52:57;6.20;95.10
23671;DHT22;12012;51.998;7.614;2023-02-04T02:55:25;6.20;95.20
23671;DHT22;12012;51.998;7.614;2023-02-04T02:57:52;6.20;95.40
23671;DHT22;12012;51.998;7.614;2023-02-04T03:00:24;6.20;95.30
23671;DHT22;12012;51.998;7.614;2023-02-04T03:02:56;6.20;95.40
23671;DHT22;12012;51.998;7.614;2023-02-04T03:05:25;6.20;95.50
23671;DHT22;12012;51.998;7.614;2023-02-04T03:07:51;6.20;95.50
23671;DHT22;12012;51.998;7.614;2023-02-04T03:10:17;6.20;95.60
23671;DHT22;12012;51.998;7.614;2023-02-04T03:12:44;6.20;95.80
23671;DHT22;12012;51.998;7.614;2023-02-04T03:15:10;6.20;95.70
23671;DHT22;12012;51.998;7.614;2023-02-04T03:17:35;6.20;96.30
23671;DHT22;12012;51.998;7.614;2023-02-04T03:20:05;6.20;96.00
23671;DHT22;12012;51.998;7.614;2023-02-04T03:22:31;6.20;96.00
23671;DHT22;12012;51.998;7.614;2023-02-04T03:24:57;6.20;96.30
23671;DHT22;12012;51.998;7.614;2023-02-04T03:27:23;6.20;96.40
23671;DHT22;12012;51.998;7.614;2023-02-04T03:29:49;6.20;96.40
23671;DHT22;12012;51.998;7.614;2023-02-04T03:32:14;6.20;96.40
23671;DHT22;12012;51.998;7.614;2023-02-04T03:34:40;6.20;96.30
23671;DHT22;12012;51.998;7.614;2023-02-04T03:37:06;6.20;96.40
23671;DHT22;12012;51.998;7.614;2023-02-04T03:39:32;6.20;96.60
23671;DHT22;12012;51.998;7.614;2023-02-04T03:41:57;6.20;96.60
23671;DHT22;12012;51.998;7.614;2023-02-04T03:44:23;6.10;96.70
23671;DHT22;12012;51.998;7.614;2023-02-04T03:46:51;6.20;96.90
23671;DHT22;12012;51.998;7.614;2023-02-04T03:49:22;6.20;97.10
23671;DHT22;12012;51.998;7.614;2023-02-04T03:51:48;6.20;97.10
23671;DHT22;12012;51.998;7.614;2023-02-04T03:54:14;6.20;97.00
23671;DHT22;12012;51.998;7.614;2023-02-04T03:56:39;6.20;97.30
23671;DHT22;12012;51.998;7.614;2023-02-04T03:59:05;6.20;97.20
23671;DHT22;12012;51.998;7.614;2023-02-04T04:01:31;6.20;97.40
23671;DHT22;12012;51.998;7.614;2023-02-04T04:03:57;6.20;97.60
23671;DHT22;12012;51.998;7.614;2023-02-04T04:06:22;6.20;97.50
23671;DHT22;12012;51.998;7.614;2023-02-04T04:08:48;6.20;97.40
23671;DHT22;12012;51.998;7.614;2023-02-04T04:11:14;6.10;97.20
23671;DHT22;12012;51.998;7.614;2023-02-04T04:13:39;6.10;97.10
23671;DHT22;12012;51.998;7.614;2023-02-04T04:16:05;6.10;97.10
23671;DHT22;12012;51.998;7.614;2023-02-04T04:18:31;6.10;96.90
23671;DHT22;12012;51.998;7.614;2023-02-04T04:20:57;6.10;96.90
23671;DHT22;12012;51.998;7.614;2023-02-04T04:23:23;6.10;96.80
23671;DHT22;12012;51.998;7.614;2023-02-04T04:25:49;6.00;97.30
23671;DHT22;12012;51.998;7.614;2023-02-04T04:28:15;6.00;97.50
23671;DHT22;12012;51.998;7.614;2023-02-04T04:30:41;6.00;97.80
23671;DHT22;12012;51.998;7.614;2023-02-04T04:33:06;6.00;97.50
23671;DHT22;12012;51.998;7.614;2023-02-04T04:35:32;5.90;97.70
23671;DHT22;12012;51.998;7.614;2023-02-04T04:37:59;6.00;98.10
23671;DHT22;12012;51.998;7.614;2023-02-04T04:40:25;5.90;97.40
23671;DHT22;12012;51.998;7.614;2023-02-04T04:42:51;6.00;98.40
23671;DHT22;12012;51.998;7.614;2023-02-04T04:45:16;6.00;98.50
23671;DHT22;12012;51.998;7.614;2023-02-04T04:47:42;6.00;98.40
23671;DHT22;12012;51.998;7.614;2023-02-04T04:50:08;6.00;99.30
23671;DHT22;12012;51.998;7.614;2023-02-04T04:52:34;6.00;99.20
23671;DHT22;12012;51.998;7.614;2023-02-04T04:54:59;6.00;98.60
23671;DHT22;12012;51.998;7.614;2023-02-04T04:57:25;6.10;98.20
23671;DHT22;12012;51.998;7.614;2023-02-04T04:59:50;6.10;98.50
23671;DHT22;12012;51.998;7.614;2023-02-04T05:02:16;6.10;99.10
23671;DHT22;12012;51.998;7.614;2023-02-04T05:04:42;6.10;98.40
23671;DHT22;12012;51.998;7.614;2023-02-04T05:07:07;6.20;98.50
23671;DHT22;12012;51.998;7.614;2023-02-04T05:09:33;6.10;99.00
23671;DHT22;12012;51.998;7.614;2023-02-04T05:11:58;6.20;99.00
23671;DHT22;12012;51.998;7.614;2023-02-04T05:14:24;6.20;99.10
23671;DHT22;12012;51.998;7.614;2023-02-04T05:16:49;6.20;98.80
23671;DHT22;12012;51.998;7.614;2023-02-04T05:19:15;6.20;99.30
23671;DHT22;12012;51.998;7.614;2023-02-04T05:21:40;6.20;99.50
23671;DHT22;12012;51.998;7.614;2023-02-04T05:24:06;6.30;99.50
23671;DHT22;12012;51.998;7.614;2023-02-04T05:26:32;6.30;99.40
23671;DHT22;12012;51.998;7.614;2023-02-04T05:28:58;6.30;99.00
23671;DHT22;12012;51.998;7.614;2023-02-04T05:31:27;6.30;98.80
23671;DHT22;12012;51.998;7.614;2023-02-04T05:33:52;6.30;98.90
23671;DHT22;12012;51.998;7.614;2023-02-04T05:36:19;6.30;98.80
23671;DHT22;12012;51.998;7.614;2023-02-04T05:38:44;6.30;98.80
23671;DHT22;12012;51.998;7.614;2023-02-04T05:41:10;6.30;98.90
23671;DHT22;12012;51.998;7.614;2023-02-04T05:43:36;6.30;98.80
23671;DHT22;12012;51.998;7.614;2023-02-04T05:46:02;6.30;98.80
23671;DHT22;12012;51.998;7.614;2023-02-04T05:48:27;6.30;98.70
23671;DHT22;12012;51.998;7.614;2023-02-04T05:50:53;6.30;98.70
23671;DHT22;12012;51.998;7.614;2023-02-04T05:53:18;6.30;98.70
23671;DHT22;12012;51.998;7.614;2023-02-04T05:55:44;6.30;98.60
23671;DHT22;12012;51.998;7.614;2023-02-04T05:58:09;6.30;98.70
23671;DHT22;12012;51.998;7.614;2023-02-04T06:00:35;6.30;98.50
23671;DHT22;12012;51.998;7.614;2023-02-04T06:03:01;6.30;98.70
23671;DHT22;12012;51.998;7.614;2023-02-04T06:05:26;6.20;98.80
23671;DHT22;12012;51.998;7.614;2023-02-04T06:07:52;6.30;98.80
23671;DHT22;12012;51.998;7.614;2023-02-04T06:10:18;6.30;98.80
23671;DHT22;12012;51.998;7.614;2023-02-04T06:12:45;6.30;98.80
23671;DHT22;12012;51.998;7.614;2023-02-04T06:15:11;6.30;98.60
23671;DHT22;12012;51.998;7.614;2023-02-04T06:17:37;6.30;98.60
23671;DHT22;12012;51.998;7.614;2023-02-04T06:20:03;6.30;98.60
23671;DHT22;12012;51.998;7.614;2023-02-04T06:22:29;6.30;98.60
23671;DHT22;12012;51.998;7.614;2023-02-04T06:24:55;6.30;98.50
23671;DHT22;12012;51.998;7.614;2023-02-04T06:27:20;6.30;98.80
23671;DHT22;12012;51.998;7.614;2023-02-04T06:29:56;6.20;98.70
23671;DHT22;12012;51.998;7.614;2023-02-04T06:32:22;6.30;98.80
23671;DHT22;12012;51.998;7.614;2023-02-04T06:34:48;6.20;98.40
23671;DHT22;12012;51.998;7.614;2023-02-04T06:37:14;6.20;98.40
23671;DHT22;12012;51.998;7.614;2023-02-04T06:39:41;6.20;98.70
23671;DHT22;12012;51.998;7.614;2023-02-04T06:42:07;6.20;98.40
23671;DHT22;12012;51.998;7.614;2023-02-04T06:44:33;6.20;98.60
23671;DHT22;12012;51.998;7.614;2023-02-04T06:46:58;6.20;98.80
23671;DHT22;12012;51.998;7.614;2023-02-04T06:49:24;6.20;98.70
23671;DHT22;12012;51.998;7.614;2023-02-04T06:51:50;6.20;98.50
23671;DHT22;12012;51.998;7.614;2023-02-04T06:54:16;6.20;98.50
23671;DHT22;12012;51.998;7.614;2023-02-04T06:56:42;6.20;98.50
23671;DHT22;12012;51.998;7.614;2023-02-04T06:59:08;6.20;98.70
23671;DHT22;12012;51.998;7.614;2023-02-04T07:01:34;6.20;98.80
23671;DHT22;12012;51.998;7.614;2023-02-04T07:04:00;6.20;98.60
23671;DHT22;12012;51.998;7.614;2023-02-04T07:06:25;6.20;98.70
23671;DHT22;12012;51.998;7.614;2023-02-04T07:08:51;6.20;98.60
23671;DHT22;12012;51.998;7.614;2023-02-04T07:11:16;6.20;98.50
23671;DHT22;12012;51.998;7.614;2023-02-04T07:13:42;6.20;98.40
23671;DHT22;12012;51.998;7.614;2023-02-04T07:16:07;6.20;98.30
23671;DHT22;12012;51.998;7.614;2023-02-04T07:18:33;6.20;98.30
23671;DHT22;12012;51.998;7.614;2023-02-04T07:20:59;6.20;98.40
23671;DHT22;12012;51.998;7.614;2023-02-04T07:23:24;6.20;98.30
23671;DHT22;12012;51.998;7.614;2023-02-04T07:25:52;6.20;98.50
23671;DHT22;12012;51.998;7.614;2023-02-04T07:28:18;6.20;98.20
23671;DHT22;12012;51.998;7.614;2023-02-04T07:30:44;6.20;98.10
23671;DHT22;12012;51.998;7.614;2023-02-04T07:33:10;6.20;98.30
23671;DHT22;12012;51.998;7.614;2023-02-04T07:35:36;6.20;98.30
23671;DHT22;12012;51.998;7.614;2023-02-04T07:38:03;6.30;98.40
23671;DHT22;12012;51.998;7.614;2023-02-04T07:40:28;6.30;98.30
23671;DHT22;12012;51.998;7.614;2023-02-04T07:42:54;6.30;98.20
23671;DHT22;12012;51.998;7.614;2023-02-04T07:45:19;6.30;98.10
23671;DHT22;12012;51.998;7.614;2023-02-04T07:47:45;6.40;98.30
23671;DHT22;12012;51.998;7.614;2023-02-04T07:50:11;6.40;98.30
23671;DHT22;12012;51.998;7.614;2023-02-04T07:52:36;6.40;98.30
23671;DHT22;12012;51.998;7.614;2023-02-04T07:55:03;6.40;98.20
23671;DHT22;12012;51.998;7.614;2023-02-04T07:57:29;6.50;98.20
23671;DHT22;12012;51.998;7.614;2023-02-04T07:59:55;6.50;98.00
23671;DHT22;12012;51.998;7.614;2023-02-04T08:02:21;6.50;97.70
23671;DHT22;12012;51.998;7.614;2023-02-04T08:04:46;6.60;97.50
23671;DHT22;12012;51.998;7.614;2023-02-04T08:07:12;6.50;97.20
23671;DHT22;12012;51.998;7.614;2023-02-04T08:09:37;6.50;97.10
23671;DHT22;12012;51.998;7.614;2023-02-04T08:12:03;6.50;96.90
23671;DHT22;12012;51.998;7.614;2023-02-04T08:14:28;6.50;95.90
23671;DHT22;12012;51.998;7.614;2023-02-04T08:16:54;6.50;95.00
23671;DHT22;12012;51.998;7.614;2023-02-04T08:19:20;6.50;95.50
23671;DHT22;12012;51.998;7.614;2023-02-04T08:21:46;6.50;96.20
23671;DHT22;12012;51.998;7.614;2023-02-04T08:24:13;6.50;95.50
23671;DHT22;12012;51.998;7.614;2023-02-04T08:26:40;6.60;95.80
23671;DHT22;12012;51.998;7.614;2023-02-04T08:29:06;6.60;95.70
23671;DHT22;12012;51.998;7.614;2023-02-04T08:31:31;6.70;94.00
23671;DHT22;12012;51.998;7.614;2023-02-04T08:33:57;6.70;93.60
23671;DHT22;12012;51.998;7.614;2023-02-04T08:36:23;6.70;94.00
23671;DHT22;12012;51.998;7.614;2023-02-04T08:38:48;6.70;92.50
23671;DHT22;12012;51.998;7.614;2023-02-04T08:41:14;6.80;92.60
23671;DHT22;12012;51.998;7.614;2023-02-04T08:43:40;6.80;93.30
23671;DHT22;12012;51.998;7.614;2023-02-04T08:46:05;6.80;88.60
23671;DHT22;12012;51.998;7.614;2023-02-04T08:48:31;6.80;87.50
23671;DHT22;12012;51.998;7.614;2023-02-04T08:50:57;6.80;85.10
23671;DHT22;12012;51.998;7.614;2023-02-04T08:53:22;6.80;81.80
23671;DHT22;12012;51.998;7.614;2023-02-04T08:55:48;6.80;87.70
23671;DHT22;12012;51.998;7.614;2023-02-04T08:58:13;6.90;86.70
23671;DHT22;12012;51.998;7.614;2023-02-04T09:00:39;7.00;84.20
23671;DHT22;12012;51.998;7.614;2023-02-04T09:03:05;7.10;86.50
23671;DHT22;12012;51.998;7.614;2023-02-04T09:05:30;7.20;85.70
23671;DHT22;12012;51.998;7.614;2023-02-04T09:07:56;7.40;81.80
23671;DHT22;12012;51.998;7.614;2023-02-04T09:10:22;7.50;79.30
23671;DHT22;12012;51.998;7.614;2023-02-04T09:12:47;7.60;69.60
23671;DHT22;12012;51.998;7.614;2023-02-04T09:15:13;7.70;65.30
23671;DHT22;12012;51.998;7.614;2023-02-04T09:17:39;7.70;63.50
23671;DHT22;12012;51.998;7.614;2023-02-04T09:20:05;7.70;69.40
23671;DHT22;12012;51.998;7.614;2023-02-04T09:22:31;7.80;67.30
23671;DHT22;12012;51.998;7.614;2023-02-04T09:24:56;7.80;53.30
23671;DHT22;12012;51.998;7.614;2023-02-04T09:27:22;7.80;47.00
23671;DHT22;12012;51.998;7.614;2023-02-04T09:29:47;7.80;58.40
23671;DHT22;12012;51.998;7.614;2023-02-04T09:32:13;7.80;54.70
23671;DHT22;12012;51.998;7.614;2023-02-04T09:34:39;7.90;58.90
23671;DHT22;12012;51.998;7.614;2023-02-04T09:37:04;8.00;56.40
23671;DHT22;12012;51.998;7.614;2023-02-04T09:39:30;8.00;42.70
23671;DHT22;12012;51.998;7.614;2023-02-04T09:41:56;7.90;44.50
23671;DHT22;12012;51.998;7.614;2023-02-04T09:44:24;8.00;44.60
23671;DHT22;12012;51.998;7.614;2023-02-04T09:46:54;8.10;33.30
23671;DHT22;12012;51.998;7.614;2023-02-04T09:49:20;8.20;30.00
23671;DHT22;12012;51.998;7.614;2023-02-04T09:51:46;8.30;34.80
23671;DHT22;12012;51.998;7.614;2023-02-04T09:54:14;8.50;36.30
23671;DHT22;12012;51.998;7.614;2023-02-04T09:56:40;8.80;28.20
23671;DHT22;12012;51.998;7.614;2023-02-04T09:59:25;8.90;24.20
23671;DHT22;12012;51.998;7.614;2023-02-04T10:01:58;9.00;11.70
23671;DHT22;12012;51.998;7.614;2023-02-04T10:04:24;9.10;24.20
23671;DHT22;12012;51.998;7.614;2023-02-04T10:06:50;9.20;11.00
23671;DHT22;12012;51.998;7.614;2023-02-04T10:09:15;9.20;14.70
23671;DHT22;12012;51.998;7.614;2023-02-04T10:11:43;9.40;15.70
23671;DHT22;12012;51.998;7.614;2023-02-04T10:14:15;9.50;1.00
23671;DHT22;12012;51.998;7.614;2023-02-04T10:16:43;9.50;1.00
23671;DHT22;12012;51.998;7.614;2023-02-04T10:19:14;9.60;1.00
23671;DHT22;12012;51.998;7.614;2023-02-04T10:21:41;9.60;1.00
23671;DHT22;12012;51.998;7.614;2023-02-04T10:24:19;9.70;1.00
23671;DHT22;12012;51.998;7.614;2023-02-04T10:26:46;9.80;1.00
23671;DHT22;12012;51.998;7.614;2023-02-04T10:29:18;9.80;1.00
23671;DHT22;12012;51.998;7.614;2023-02-04T10:31:46;10.00;1.00
23671;DHT22;12012;51.998;7.614;2023-02-04T10:34:23;10.00;1.00
23671;DHT22;12012;51.998;7.614;2023-02-04T10:36:54;10.20;1.00
23671;DHT22;12012;51.998;7.614;2023-02-04T10:39:27;10.30;1.00
23671;DHT22;12012;51.998;7.614;2023-02-04T10:41:56;10.40;1.00
23671;DHT22;12012;51.998;7.614;2023-02-04T10:44:30;10.70;1.00
23671;DHT22;12012;51.998;7.614;2023-02-04T10:47:05;10.90;1.00
23671;DHT22;12012;51.998;7.614;2023-02-04T10:49:31;11.40;1.00
23671;DHT22;12012;51.998;7.614;2023-02-04T10:51:58;12.00;1.00
23671;DHT22;12012;51.998;7.614;2023-02-04T10:54:36;12.40;1.00
23671;DHT22;12012;51.998;7.614;2023-02-04T10:57:22;12.60;1.00
23671;DHT22;12012;51.998;7.614;2023-02-04T10:59:53;12.70;1.00
23671;DHT22;12012;51.998;7.614;2023-02-04T11:04:54;12.70;1.00
23671;DHT22;12012;51.998;7.614;2023-02-04T11:07:20;12.70;1.00
23671;DHT22;12012;51.998;7.614;2023-02-04T11:09:47;12.60;1.00
23671;DHT22;12012;51.998;7.614;2023-02-04T11:12:35;12.60;99.90
23671;DHT22;12012;51.998;7.614;2023-02-04T11:15:00;12.60;1.00
23671;DHT22;12012;51.998;7.614;2023-02-04T11:17:33;12.60;99.90
23671;DHT22;12012;51.998;7.614;2023-02-04T11:19:59;12.60;99.90
23671;DHT22;12012;51.998;7.614;2023-02-04T11:22:43;12.50;1.00
23671;DHT22;12012;51.998;7.614;2023-02-04T11:25:35;12.50;99.90
23671;DHT22;12012;51.998;7.614;2023-02-04T11:28:24;12.50;99.90
23671;DHT22;12012;51.998;7.614;2023-02-04T11:31:00;12.30;99.90
23671;DHT22;12012;51.998;7.614;2023-02-04T11:33:38;12.20;99.90
23671;DHT22;12012;51.998;7.614;2023-02-04T11:36:07;12.00;99.90
23671;DHT22;12012;51.998;7.614;2023-02-04T11:38:33;11.90;99.90
23671;DHT22;12012;51.998;7.614;2023-02-04T11:40:59;11.80;99.90
23671;DHT22;12012;51.998;7.614;2023-02-04T11:43:25;11.70;1.00
23671;DHT22;12012;51.998;7.614;2023-02-04T11:46:12;11.60;1.00
23671;DHT22;12012;51.998;7.614;2023-02-04T11:48:40;11.50;1.00
23671;DHT22;12012;51.998;7.614;2023-02-04T11:51:12;11.40;1.00
23671;DHT22;12012;51.998;7.614;2023-02-04T11:53:38;11.30;1.00
23671;DHT22;12012;51.998;7.614;2023-02-04T11:56:04;11.30;99.90
23671;DHT22;12012;51.998;7.614;2023-02-04T11:58:30;11.30;99.90
23671;DHT22;12012;51.998;7.614;2023-02-04T12:00:56;11.30;99.90
23671;DHT22;12012;51.998;7.614;2023-02-04T12:03:27;11.40;99.90
23671;DHT22;12012;51.998;7.614;2023-02-04T12:05:55;11.40;99.90
23671;DHT22;12012;51.998;7.614;2023-02-04T12:13:30;11.70;99.90
23671;DHT22;12012;51.998;7.614;2023-02-04T12:16:02;11.70;99.90
23671;DHT22;12012;51.998;7.614;2023-02-04T12:18:28;11.80;99.90
23671;DHT22;12012;51.998;7.614;2023-02-04T12:20:55;11.80;99.90
23671;DHT22;12012;51.998;7.614;2023-02-04T12:23:22;11.70;99.20
23671;DHT22;12012;51.998;7.614;2023-02-04T12:25:48;11.60;99.90
23671;DHT22;12012;51.998;7.614;2023-02-04T12:28:14;11.50;1.00
23671;DHT22;12012;51.998;7.614;2023-02-04T12:30:40;11.50;41.20
23671;DHT22;12012;51.998;7.614;2023-02-04T12:33:05;11.60;99.90
23671;DHT22;12012;51.998;7.614;2023-02-04T12:35:32;11.80;95.00
23671;DHT22;12012;51.998;7.614;2023-02-04T12:37:58;12.20;32.80
23671;DHT22;12012;51.998;7.614;2023-02-04T12:40:23;12.70;1.00
23671;DHT22;12012;51.998;7.614;2023-02-04T12:42:49;13.40;1.00
23671;DHT22;12012;51.998;7.614;2023-02-04T12:45:15;14.20;99.90
23671;DHT22;12012;51.998;7.614;2023-02-04T12:47:42;14.90;99.90
23671;DHT22;12012;51.998;7.614;2023-02-04T12:50:08;14.80;99.90
23671;DHT22;12012;51.998;7.614;2023-02-04T12:52:34;14.40;99.90
23671;DHT22;12012;51.998;7.614;2023-02-04T12:55:02;14.00;99.90
23671;DHT22;12012;51.998;7.614;2023-02-04T12:57:30;13.60;99.90
23671;DHT22;12012;51.998;7.614;2023-02-04T12:59:55;13.20;99.90
23671;DHT22;12012;51.998;7.614;2023-02-04T13:02:24;12.90;99.90
23671;DHT22;12012;51.998;7.614;2023-02-04T13:04:50;12.70;99.90
23671;DHT22;12012;51.998;7.614;2023-02-04T13:07:16;12.70;99.90
23671;DHT22;12012;51.998;7.614;2023-02-04T13:09:41;12.60;99.90
23671;DHT22;12012;51.998;7.614;2023-02-04T13:12:07;12.50;99.90
23671;DHT22;12012;51.998;7.614;2023-02-04T13:14:32;12.40;99.90
23671;DHT22;12012;51.998;7.614;2023-02-04T13:16:58;12.20;99.90
23671;DHT22;12012;51.998;7.614;2023-02-04T13:19:24;12.10;99.90
23671;DHT22;12012;51.998;7.614;2023-02-04T13:21:49;12.10;99.90
23671;DHT22;12012;51.998;7.614;2023-02-04T13:24:15;12.10;99.90
23671;DHT22;12012;51.998;7.614;2023-02-04T13:26:41;12.20;99.90
23671;DHT22;12012;51.998;7.614;2023-02-04T13:29:07;12.30;99.90
23671;DHT22;12012;51.998;7.614;2023-02-04T13:31:33;12.40;99.90
23671;DHT22;12012;51.998;7.614;2023-02-04T13:33:58;12.30;99.90
23671;DHT22;12012;51.998;7.614;2023-02-04T13:36:24;12.30;99.90
23671;DHT22;12012;51.998;7.614;2023-02-04T13:38:52;12.30;99.90
23671;DHT22;12012;51.998;7.614;2023-02-04T13:41:17;12.20;1.00
23671;DHT22;12012;51.998;7.614;2023-02-04T13:43:43;12.10;1.00
23671;DHT22;12012;51.998;7.614;2023-02-04T13:46:08;12.00;1.00
23671;DHT22;12012;51.998;7.614;2023-02-04T13:48:34;11.90;1.00
23671;DHT22;12012;51.998;7.614;2023-02-04T13:50:59;11.70;1.00
23671;DHT22;12012;51.998;7.614;2023-02-04T13:53:25;11.60;1.00
23671;DHT22;12012;51.998;7.614;2023-02-04T13:55:56;11.50;1.00
23671;DHT22;12012;51.998;7.614;2023-02-04T13:58:22;11.40;1.00
23671;DHT22;12012;51.998;7.614;2023-02-04T14:00:48;11.30;1.00
23671;DHT22;12012;51.998;7.614;2023-02-04T14:03:14;11.20;1.00
23671;DHT22;12012;51.998;7.614;2023-02-04T14:05:39;11.10;1.00
23671;DHT22;12012;51.998;7.614;2023-02-04T14:08:05;11.00;1.00
23671;DHT22;12012;51.998;7.614;2023-02-04T14:10:30;10.90;1.00
23671;DHT22;12012;51.998;7.614;2023-02-04T14:12:56;10.80;1.00
23671;DHT22;12012;51.998;7.614;2023-02-04T14:15:23;10.70;1.00
23671;DHT22;12012;51.998;7.614;2023-02-04T14:17:48;10.60;1.00
23671;DHT22;12012;51.998;7.614;2023-02-04T14:20:14;10.60;21.30
23671;DHT22;12012;51.998;7.614;2023-02-04T14:22:40;10.50;60.40
23671;DHT22;12012;51.998;7.614;2023-02-04T14:25:06;10.50;47.90
23671;DHT22;12012;51.998;7.614;2023-02-04T14:27:31;10.40;93.30
23671;DHT22;12012;51.998;7.614;2023-02-04T14:29:59;10.50;30.40
23671;DHT22;12012;51.998;7.614;2023-02-04T14:32:25;10.40;1.00
23671;DHT22;12012;51.998;7.614;2023-02-04T14:34:50;10.40;15.00
23671;DHT22;12012;51.998;7.614;2023-02-04T14:37:16;10.40;32.90
23671;DHT22;12012;51.998;7.614;2023-02-04T14:39:41;10.30;69.00
23671;DHT22;12012;51.998;7.614;2023-02-04T14:42:07;10.30;74.20
23671;DHT22;12012;51.998;7.614;2023-02-04T14:44:32;10.30;67.40
23671;DHT22;12012;51.998;7.614;2023-02-04T14:46:58;10.20;1.00
23671;DHT22;12012;51.998;7.614;2023-02-04T14:49:23;10.20;79.40
23671;DHT22;12012;51.998;7.614;2023-02-04T14:51:49;10.20;99.90
23671;DHT22;12012;51.998;7.614;2023-02-04T14:54:14;10.20;94.30
23671;DHT22;12012;51.998;7.614;2023-02-04T14:56:40;10.20;33.20
23671;DHT22;12012;51.998;7.614;2023-02-04T14:59:06;10.10;51.60
23671;DHT22;12012;51.998;7.614;2023-02-04T15:01:32;10.10;98.10
23671;DHT22;12012;51.998;7.614;2023-02-04T15:03:57;10.00;99.90
23671;DHT22;12012;51.998;7.614;2023-02-04T15:06:23;10.00;99.90
23671;DHT22;12012;51.998;7.614;2023-02-04T15:08:48;9.90;99.90
23671;DHT22;12012;51.998;7.614;2023-02-04T15:11:14;9.90;62.00
23671;DHT22;12012;51.998;7.614;2023-02-04T15:13:40;9.90;30.50
23671;DHT22;12012;51.998;7.614;2023-02-04T15:16:05;9.80;35.10
23671;DHT22;12012;51.998;7.614;2023-02-04T15:18:31;9.70;99.90
23671;DHT22;12012;51.998;7.614;2023-02-04T15:20:56;9.60;99.90
23671;DHT22;12012;51.998;7.614;2023-02-04T15:23:22;9.60;99.90
23671;DHT22;12012;51.998;7.614;2023-02-04T15:25:47;9.60;99.90
23671;DHT22;12012;51.998;7.614;2023-02-04T15:28:15;9.70;99.90
23671;DHT22;12012;51.998;7.614;2023-02-04T15:30:41;9.70;99.90
23671;DHT22;12012;51.998;7.614;2023-02-04T15:33:06;9.80;99.90
23671;DHT22;12012;51.998;7.614;2023-02-04T15:35:32;9.90;99.90
23671;DHT22;12012;51.998;7.614;2023-02-04T15:37:57;10.00;99.90
23671;DHT22;12012;51.998;7.614;2023-02-04T15:40:23;10.10;99.90
23671;DHT22;12012;51.998;7.614;2023-02-04T15:42:49;10.20;99.90
23671;DHT22;12012;51.998;7.614;2023-02-04T15:45:15;10.20;99.90
23671;DHT22;12012;51.998;7.614;2023-02-04T15:47:40;10.20;99.90